Kirkwood, New Jersey
Current Conditions -  °F | °C
As of 9:54 PM on Friday 24 Oct 2014 (Local Time) from KVAY Reporting Station
Clear Clear  
Wind Chill: 58°   Ceiling: Unl
Heat Index: 58°   Visibility: 10mi
Dew Point: 43°   Wind: 6mph
Humidity: 58%   Direction: 260°W
Pressure: 29.86"   Gusts: NA
Location:  39.8445°N, 74.9532°W
Report Text: KVAY 250154Z AUTO 26005KT 10SM CLR 14/06 A2986 RMK AO2 SLP110 T01440061
Loading
Personal Weather Stations






























Interactive Weather Map
Tropical Storm Tracking
New forecast layout! Learn more

10-Day Weather Forecast

Advertisements
Track Severe Weather on mobile